sensor_id;sensor_type;location;lat;lon;timestamp;P1;durP1;ratioP1;P2;durP2;ratioP2
47309;SDS011;33046;52.270;6.832;2023-04-24T00:01:08;2.75;;;1.27;;
47309;SDS011;33046;52.270;6.832;2023-04-24T00:03:15;1.38;;;1.27;;
47309;SDS011;33046;52.270;6.832;2023-04-24T00:05:22;2.20;;;1.88;;
47309;SDS011;33046;52.270;6.832;2023-04-24T00:07:29;2.05;;;1.45;;
47309;SDS011;33046;52.270;6.832;2023-04-24T00:09:37;2.15;;;1.50;;
47309;SDS011;33046;52.270;6.832;2023-04-24T00:11:44;2.15;;;1.95;;
47309;SDS011;33046;52.270;6.832;2023-04-24T00:13:51;1.58;;;1.48;;
47309;SDS011;33046;52.270;6.832;2023-04-24T00:15:57;2.17;;;1.80;;
47309;SDS011;33046;52.270;6.832;2023-04-24T00:18:04;2.80;;;1.60;;
47309;SDS011;33046;52.270;6.832;2023-04-24T00:20:11;2.15;;;1.73;;
47309;SDS011;33046;52.270;6.832;2023-04-24T00:22:18;2.55;;;2.08;;
47309;SDS011;33046;52.270;6.832;2023-04-24T00:24:25;2.30;;;1.63;;
47309;SDS011;33046;52.270;6.832;2023-04-24T00:26:33;2.17;;;1.98;;
47309;SDS011;33046;52.270;6.832;2023-04-24T00:28:39;3.00;;;2.33;;
47309;SDS011;33046;52.270;6.832;2023-04-24T00:30:46;2.35;;;2.15;;
47309;SDS011;33046;52.270;6.832;2023-04-24T00:32:53;3.40;;;2.53;;
47309;SDS011;33046;52.270;6.832;2023-04-24T00:35:02;2.78;;;1.98;;
47309;SDS011;33046;52.270;6.832;2023-04-24T00:37:09;2.03;;;1.88;;
47309;SDS011;33046;52.270;6.832;2023-04-24T00:39:16;1.75;;;1.65;;
47309;SDS011;33046;52.270;6.832;2023-04-24T00:41:24;2.30;;;2.10;;
47309;SDS011;33046;52.270;6.832;2023-04-24T00:43:32;2.35;;;2.15;;
47309;SDS011;33046;52.270;6.832;2023-04-24T00:45:40;2.05;;;1.85;;
47309;SDS011;33046;52.270;6.832;2023-04-24T00:47:47;2.63;;;2.42;;
47309;SDS011;33046;52.270;6.832;2023-04-24T00:49:54;3.28;;;2.67;;
47309;SDS011;33046;52.270;6.832;2023-04-24T00:52:01;2.78;;;2.35;;
47309;SDS011;33046;52.270;6.832;2023-04-24T00:54:08;3.22;;;2.88;;
47309;SDS011;33046;52.270;6.832;2023-04-24T00:56:15;3.00;;;2.70;;
47309;SDS011;33046;52.270;6.832;2023-04-24T00:58:21;3.92;;;3.63;;
47309;SDS011;33046;52.270;6.832;2023-04-24T01:00:30;3.88;;;3.47;;
47309;SDS011;33046;52.270;6.832;2023-04-24T01:02:37;4.47;;;4.18;;
47309;SDS011;33046;52.270;6.832;2023-04-24T01:04:45;4.50;;;4.18;;
47309;SDS011;33046;52.270;6.832;2023-04-24T01:06:52;4.80;;;4.40;;
47309;SDS011;33046;52.270;6.832;2023-04-24T01:09:00;4.53;;;4.13;;
47309;SDS011;33046;52.270;6.832;2023-04-24T01:11:08;5.00;;;4.55;;
47309;SDS011;33046;52.270;6.832;2023-04-24T01:13:15;4.45;;;4.10;;
47309;SDS011;33046;52.270;6.832;2023-04-24T01:15:23;4.82;;;4.40;;
47309;SDS011;33046;52.270;6.832;2023-04-24T01:17:31;5.93;;;3.92;;
47309;SDS011;33046;52.270;6.832;2023-04-24T01:19:38;4.45;;;4.05;;
47309;SDS011;33046;52.270;6.832;2023-04-24T01:21:45;4.97;;;4.57;;
47309;SDS011;33046;52.270;6.832;2023-04-24T01:23:58;5.07;;;4.57;;
47309;SDS011;33046;52.270;6.832;2023-04-24T01:26:05;5.63;;;5.22;;
47309;SDS011;33046;52.270;6.832;2023-04-24T01:28:12;5.93;;;5.38;;
47309;SDS011;33046;52.270;6.832;2023-04-24T01:30:19;6.32;;;5.82;;
47309;SDS011;33046;52.270;6.832;2023-04-24T01:32:25;6.03;;;5.53;;
47309;SDS011;33046;52.270;6.832;2023-04-24T01:34:33;5.47;;;5.07;;
47309;SDS011;33046;52.270;6.832;2023-04-24T01:36:40;5.32;;;4.82;;
47309;SDS011;33046;52.270;6.832;2023-04-24T01:38:49;5.25;;;4.85;;
47309;SDS011;33046;52.270;6.832;2023-04-24T01:40:57;4.78;;;4.38;;
47309;SDS011;33046;52.270;6.832;2023-04-24T01:43:04;4.72;;;4.32;;
47309;SDS011;33046;52.270;6.832;2023-04-24T01:45:11;4.53;;;4.13;;
47309;SDS011;33046;52.270;6.832;2023-04-24T01:47:18;5.38;;;4.97;;
47309;SDS011;33046;52.270;6.832;2023-04-24T01:49:25;4.53;;;4.13;;
47309;SDS011;33046;52.270;6.832;2023-04-24T01:51:32;5.32;;;4.18;;
47309;SDS011;33046;52.270;6.832;2023-04-24T01:53:39;4.05;;;3.75;;
47309;SDS011;33046;52.270;6.832;2023-04-24T01:55:46;4.07;;;3.67;;
47309;SDS011;33046;52.270;6.832;2023-04-24T01:57:55;4.63;;;3.85;;
47309;SDS011;33046;52.270;6.832;2023-04-24T02:00:02;3.58;;;3.28;;
47309;SDS011;33046;52.270;6.832;2023-04-24T02:02:18;3.47;;;3.17;;
47309;SDS011;33046;52.270;6.832;2023-04-24T02:04:25;3.83;;;3.53;;
47309;SDS011;33046;52.270;6.832;2023-04-24T02:06:32;3.75;;;3.45;;
47309;SDS011;33046;52.270;6.832;2023-04-24T02:08:39;3.83;;;3.50;;
47309;SDS011;33046;52.270;6.832;2023-04-24T02:10:46;4.07;;;3.67;;
47309;SDS011;33046;52.270;6.832;2023-04-24T02:12:54;4.45;;;4.05;;
47309;SDS011;33046;52.270;6.832;2023-04-24T02:15:03;4.68;;;4.28;;
47309;SDS011;33046;52.270;6.832;2023-04-24T02:17:11;4.43;;;4.03;;
47309;SDS011;33046;52.270;6.832;2023-04-24T02:19:18;5.45;;;4.45;;
47309;SDS011;33046;52.270;6.832;2023-04-24T02:21:24;4.65;;;4.15;;
47309;SDS011;33046;52.270;6.832;2023-04-24T02:23:31;4.85;;;4.45;;
47309;SDS011;33046;52.270;6.832;2023-04-24T02:25:38;4.43;;;4.03;;
47309;SDS011;33046;52.270;6.832;2023-04-24T02:27:45;5.22;;;4.72;;
47309;SDS011;33046;52.270;6.832;2023-04-24T02:29:53;4.72;;;4.22;;
47309;SDS011;33046;52.270;6.832;2023-04-24T02:32:00;5.82;;;4.85;;
47309;SDS011;33046;52.270;6.832;2023-04-24T02:34:06;5.68;;;5.18;;
47309;SDS011;33046;52.270;6.832;2023-04-24T02:36:14;4.82;;;4.32;;
47309;SDS011;33046;52.270;6.832;2023-04-24T02:38:21;6.15;;;5.32;;
47309;SDS011;33046;52.270;6.832;2023-04-24T02:40:27;5.75;;;5.22;;
47309;SDS011;33046;52.270;6.832;2023-04-24T02:42:34;5.07;;;4.65;;
47309;SDS011;33046;52.270;6.832;2023-04-24T02:44:41;6.07;;;5.47;;
47309;SDS011;33046;52.270;6.832;2023-04-24T02:46:49;6.50;;;5.93;;
47309;SDS011;33046;52.270;6.832;2023-04-24T02:48:56;6.35;;;5.75;;
47309;SDS011;33046;52.270;6.832;2023-04-24T02:51:03;6.38;;;5.80;;
47309;SDS011;33046;52.270;6.832;2023-04-24T02:53:10;8.07;;;6.82;;
47309;SDS011;33046;52.270;6.832;2023-04-24T02:55:17;7.28;;;5.82;;
47309;SDS011;33046;52.270;6.832;2023-04-24T02:57:23;7.22;;;6.63;;
47309;SDS011;33046;52.270;6.832;2023-04-24T02:59:30;6.95;;;6.25;;
47309;SDS011;33046;52.270;6.832;2023-04-24T03:01:37;6.82;;;6.20;;
47309;SDS011;33046;52.270;6.832;2023-04-24T03:03:45;7.13;;;6.43;;
47309;SDS011;33046;52.270;6.832;2023-04-24T03:05:52;6.18;;;5.57;;
47309;SDS011;33046;52.270;6.832;2023-04-24T03:07:59;6.78;;;6.03;;
47309;SDS011;33046;52.270;6.832;2023-04-24T03:10:06;7.68;;;5.60;;
47309;SDS011;33046;52.270;6.832;2023-04-24T03:12:14;7.60;;;6.05;;
47309;SDS011;33046;52.270;6.832;2023-04-24T03:14:20;6.93;;;6.07;;
47309;SDS011;33046;52.270;6.832;2023-04-24T03:16:27;5.95;;;5.25;;
47309;SDS011;33046;52.270;6.832;2023-04-24T03:18:34;6.95;;;6.25;;
47309;SDS011;33046;52.270;6.832;2023-04-24T03:20:43;6.25;;;5.65;;
47309;SDS011;33046;52.270;6.832;2023-04-24T03:22:52;6.53;;;6.03;;
47309;SDS011;33046;52.270;6.832;2023-04-24T03:24:59;7.30;;;6.10;;
47309;SDS011;33046;52.270;6.832;2023-04-24T03:27:06;7.35;;;6.30;;
47309;SDS011;33046;52.270;6.832;2023-04-24T03:29:32;7.50;;;6.88;;
47309;SDS011;33046;52.270;6.832;2023-04-24T03:31:39;8.20;;;7.43;;
47309;SDS011;33046;52.270;6.832;2023-04-24T03:33:46;7.15;;;6.45;;
47309;SDS011;33046;52.270;6.832;2023-04-24T03:35:54;7.15;;;6.47;;
47309;SDS011;33046;52.270;6.832;2023-04-24T03:38:01;7.35;;;6.53;;
47309;SDS011;33046;52.270;6.832;2023-04-24T03:40:17;7.40;;;6.70;;
47309;SDS011;33046;52.270;6.832;2023-04-24T03:42:24;6.40;;;5.68;;
47309;SDS011;33046;52.270;6.832;2023-04-24T03:44:34;7.85;;;6.03;;
47309;SDS011;33046;52.270;6.832;2023-04-24T03:46:41;6.53;;;5.95;;
47309;SDS011;33046;52.270;6.832;2023-04-24T03:48:48;6.93;;;6.22;;
47309;SDS011;33046;52.270;6.832;2023-04-24T03:50:59;6.20;;;5.60;;
47309;SDS011;33046;52.270;6.832;2023-04-24T03:53:07;6.95;;;6.32;;
47309;SDS011;33046;52.270;6.832;2023-04-24T03:55:18;7.97;;;6.47;;
47309;SDS011;33046;52.270;6.832;2023-04-24T03:57:26;6.80;;;5.97;;
47309;SDS011;33046;52.270;6.832;2023-04-24T03:59:45;7.40;;;6.72;;
47309;SDS011;33046;52.270;6.832;2023-04-24T04:01:56;6.60;;;6.00;;
47309;SDS011;33046;52.270;6.832;2023-04-24T04:04:03;7.95;;;7.15;;
47309;SDS011;33046;52.270;6.832;2023-04-24T04:06:12;9.50;;;6.93;;
47309;SDS011;33046;52.270;6.832;2023-04-24T04:08:20;7.72;;;7.13;;
47309;SDS011;33046;52.270;6.832;2023-04-24T04:10:27;9.35;;;8.13;;
47309;SDS011;33046;52.270;6.832;2023-04-24T04:12:34;7.70;;;7.00;;
47309;SDS011;33046;52.270;6.832;2023-04-24T04:14:41;8.40;;;7.60;;
47309;SDS011;33046;52.270;6.832;2023-04-24T04:16:47;8.15;;;7.35;;
47309;SDS011;33046;52.270;6.832;2023-04-24T04:18:54;8.55;;;7.85;;
47309;SDS011;33046;52.270;6.832;2023-04-24T04:21:01;9.43;;;8.52;;
47309;SDS011;33046;52.270;6.832;2023-04-24T04:23:09;8.93;;;8.07;;
47309;SDS011;33046;52.270;6.832;2023-04-24T04:25:41;10.25;;;8.90;;
47309;SDS011;33046;52.270;6.832;2023-04-24T04:27:48;10.75;;;8.93;;
47309;SDS011;33046;52.270;6.832;2023-04-24T04:29:55;10.02;;;9.05;;
47309;SDS011;33046;52.270;6.832;2023-04-24T04:32:02;9.68;;;8.80;;
47309;SDS011;33046;52.270;6.832;2023-04-24T04:34:09;10.30;;;9.50;;
47309;SDS011;33046;52.270;6.832;2023-04-24T04:36:17;9.57;;;8.68;;
47309;SDS011;33046;52.270;6.832;2023-04-24T04:38:30;9.35;;;8.55;;
47309;SDS011;33046;52.270;6.832;2023-04-24T04:40:45;11.13;;;10.07;;
47309;SDS011;33046;52.270;6.832;2023-04-24T04:42:52;10.75;;;9.75;;
47309;SDS011;33046;52.270;6.832;2023-04-24T04:45:00;10.50;;;9.57;;
47309;SDS011;33046;52.270;6.832;2023-04-24T04:47:19;11.02;;;10.13;;
47309;SDS011;33046;52.270;6.832;2023-04-24T04:49:29;12.23;;;11.20;;
47309;SDS011;33046;52.270;6.832;2023-04-24T04:51:36;12.45;;;11.20;;
47309;SDS011;33046;52.270;6.832;2023-04-24T04:53:45;13.32;;;12.05;;
47309;SDS011;33046;52.270;6.832;2023-04-24T04:55:51;15.15;;;12.57;;
47309;SDS011;33046;52.270;6.832;2023-04-24T04:58:01;12.60;;;11.35;;
47309;SDS011;33046;52.270;6.832;2023-04-24T05:00:09;13.45;;;12.00;;
47309;SDS011;33046;52.270;6.832;2023-04-24T05:02:24;12.88;;;11.68;;
47309;SDS011;33046;52.270;6.832;2023-04-24T05:04:32;12.18;;;11.07;;
47309;SDS011;33046;52.270;6.832;2023-04-24T05:06:39;14.45;;;10.90;;
47309;SDS011;33046;52.270;6.832;2023-04-24T05:08:47;12.18;;;11.07;;
47309;SDS011;33046;52.270;6.832;2023-04-24T05:11:04;12.48;;;11.32;;
47309;SDS011;33046;52.270;6.832;2023-04-24T05:13:12;12.93;;;11.55;;
47309;SDS011;33046;52.270;6.832;2023-04-24T05:15:19;13.00;;;11.70;;
47309;SDS011;33046;52.270;6.832;2023-04-24T05:17:26;12.90;;;11.57;;
47309;SDS011;33046;52.270;6.832;2023-04-24T05:19:34;12.10;;;10.98;;
47309;SDS011;33046;52.270;6.832;2023-04-24T05:21:41;11.60;;;10.43;;
47309;SDS011;33046;52.270;6.832;2023-04-24T05:23:51;13.25;;;12.02;;
47309;SDS011;33046;52.270;6.832;2023-04-24T05:26:10;12.07;;;10.98;;
47309;SDS011;33046;52.270;6.832;2023-04-24T05:28:17;13.73;;;12.05;;
47309;SDS011;33046;52.270;6.832;2023-04-24T05:30:31;12.73;;;11.55;;
47309;SDS011;33046;52.270;6.832;2023-04-24T05:32:38;12.43;;;11.32;;
47309;SDS011;33046;52.270;6.832;2023-04-24T05:34:45;12.25;;;10.85;;
47309;SDS011;33046;52.270;6.832;2023-04-24T05:36:52;12.23;;;11.02;;
47309;SDS011;33046;52.270;6.832;2023-04-24T05:39:00;13.30;;;12.20;;
47309;SDS011;33046;52.270;6.832;2023-04-24T05:41:07;11.20;;;10.20;;
47309;SDS011;33046;52.270;6.832;2023-04-24T05:43:14;13.13;;;11.82;;
47309;SDS011;33046;52.270;6.832;2023-04-24T05:45:21;12.20;;;10.98;;
47309;SDS011;33046;52.270;6.832;2023-04-24T05:47:28;12.38;;;11.18;;
47309;SDS011;33046;52.270;6.832;2023-04-24T05:49:36;12.10;;;10.40;;
47309;SDS011;33046;52.270;6.832;2023-04-24T05:51:43;11.07;;;10.07;;
47309;SDS011;33046;52.270;6.832;2023-04-24T05:53:51;11.73;;;10.73;;
47309;SDS011;33046;52.270;6.832;2023-04-24T05:55:59;12.27;;;11.13;;
47309;SDS011;33046;52.270;6.832;2023-04-24T05:58:06;11.50;;;10.50;;
47309;SDS011;33046;52.270;6.832;2023-04-24T06:00:15;12.15;;;10.43;;
47309;SDS011;33046;52.270;6.832;2023-04-24T06:02:29;12.23;;;10.25;;
47309;SDS011;33046;52.270;6.832;2023-04-24T06:04:36;11.23;;;10.18;;
47309;SDS011;33046;52.270;6.832;2023-04-24T06:06:43;10.55;;;9.55;;
47309;SDS011;33046;52.270;6.832;2023-04-24T06:08:49;11.95;;;10.80;;
47309;SDS011;33046;52.270;6.832;2023-04-24T06:10:56;9.93;;;9.13;;
47309;SDS011;33046;52.270;6.832;2023-04-24T06:13:05;10.50;;;9.55;;
47309;SDS011;33046;52.270;6.832;2023-04-24T06:15:14;11.10;;;10.02;;
47309;SDS011;33046;52.270;6.832;2023-04-24T06:17:40;10.57;;;9.45;;
47309;SDS011;33046;52.270;6.832;2023-04-24T06:19:47;10.50;;;9.60;;
47309;SDS011;33046;52.270;6.832;2023-04-24T06:21:54;10.65;;;9.65;;
47309;SDS011;33046;52.270;6.832;2023-04-24T06:24:01;11.13;;;10.10;;
47309;SDS011;33046;52.270;6.832;2023-04-24T06:26:10;12.50;;;11.15;;
47309;SDS011;33046;52.270;6.832;2023-04-24T06:28:18;10.60;;;9.40;;
47309;SDS011;33046;52.270;6.832;2023-04-24T06:30:25;9.45;;;8.55;;
47309;SDS011;33046;52.270;6.832;2023-04-24T06:32:32;12.07;;;9.32;;
47309;SDS011;33046;52.270;6.832;2023-04-24T06:34:39;23.23;;;8.82;;
47309;SDS011;33046;52.270;6.832;2023-04-24T06:36:46;10.30;;;9.30;;
47309;SDS011;33046;52.270;6.832;2023-04-24T06:38:53;10.38;;;9.32;;
47309;SDS011;33046;52.270;6.832;2023-04-24T06:41:00;11.25;;;10.10;;
47309;SDS011;33046;52.270;6.832;2023-04-24T06:43:07;8.90;;;8.18;;
47309;SDS011;33046;52.270;6.832;2023-04-24T06:45:15;9.27;;;8.45;;
47309;SDS011;33046;52.270;6.832;2023-04-24T06:47:22;12.20;;;9.23;;
47309;SDS011;33046;52.270;6.832;2023-04-24T06:49:29;9.82;;;8.82;;
47309;SDS011;33046;52.270;6.832;2023-04-24T06:51:35;9.15;;;8.38;;
47309;SDS011;33046;52.270;6.832;2023-04-24T06:53:42;11.90;;;8.93;;
47309;SDS011;33046;52.270;6.832;2023-04-24T06:55:49;10.25;;;7.97;;
47309;SDS011;33046;52.270;6.832;2023-04-24T06:57:56;8.45;;;7.75;;
47309;SDS011;33046;52.270;6.832;2023-04-24T07:00:03;8.77;;;7.85;;
47309;SDS011;33046;52.270;6.832;2023-04-24T07:02:12;10.60;;;8.48;;
47309;SDS011;33046;52.270;6.832;2023-04-24T07:04:18;10.05;;;7.57;;
47309;SDS011;33046;52.270;6.832;2023-04-24T07:06:25;9.60;;;8.43;;
47309;SDS011;33046;52.270;6.832;2023-04-24T07:08:32;7.78;;;6.97;;
47309;SDS011;33046;52.270;6.832;2023-04-24T07:10:39;8.55;;;6.30;;
47309;SDS011;33046;52.270;6.832;2023-04-24T07:12:46;9.23;;;7.35;;
47309;SDS011;33046;52.270;6.832;2023-04-24T07:14:52;10.00;;;7.50;;
47309;SDS011;33046;52.270;6.832;2023-04-24T07:16:59;7.43;;;6.78;;
47309;SDS011;33046;52.270;6.832;2023-04-24T07:19:07;10.60;;;7.45;;
47309;SDS011;33046;52.270;6.832;2023-04-24T07:21:14;9.52;;;7.30;;
47309;SDS011;33046;52.270;6.832;2023-04-24T07:23:21;8.35;;;7.55;;
47309;SDS011;33046;52.270;6.832;2023-04-24T07:25:28;8.20;;;7.45;;
47309;SDS011;33046;52.270;6.832;2023-04-24T07:27:35;8.23;;;7.43;;
47309;SDS011;33046;52.270;6.832;2023-04-24T07:29:42;7.40;;;6.70;;
47309;SDS011;33046;52.270;6.832;2023-04-24T07:31:49;8.32;;;7.63;;
47309;SDS011;33046;52.270;6.832;2023-04-24T07:33:55;8.48;;;6.82;;
47309;SDS011;33046;52.270;6.832;2023-04-24T07:36:04;7.97;;;7.28;;
47309;SDS011;33046;52.270;6.832;2023-04-24T07:38:11;6.95;;;6.35;;
47309;SDS011;33046;52.270;6.832;2023-04-24T07:40:18;7.43;;;6.82;;
47309;SDS011;33046;52.270;6.832;2023-04-24T07:42:25;8.70;;;7.90;;
47309;SDS011;33046;52.270;6.832;2023-04-24T07:44:32;9.13;;;7.03;;
47309;SDS011;33046;52.270;6.832;2023-04-24T07:46:38;6.85;;;6.20;;
47309;SDS011;33046;52.270;6.832;2023-04-24T07:48:46;7.28;;;5.72;;
47309;SDS011;33046;52.270;6.832;2023-04-24T07:50:53;5.95;;;5.47;;
47309;SDS011;33046;52.270;6.832;2023-04-24T07:53:01;4.93;;;4.43;;
47309;SDS011;33046;52.270;6.832;2023-04-24T07:55:08;5.28;;;4.50;;
47309;SDS011;33046;52.270;6.832;2023-04-24T07:57:15;5.10;;;4.57;;
47309;SDS011;33046;52.270;6.832;2023-04-24T07:59:22;4.15;;;3.80;;
47309;SDS011;33046;52.270;6.832;2023-04-24T08:01:28;4.10;;;3.75;;
47309;SDS011;33046;52.270;6.832;2023-04-24T08:03:35;4.65;;;4.25;;
47309;SDS011;33046;52.270;6.832;2023-04-24T08:05:42;4.03;;;3.53;;
47309;SDS011;33046;52.270;6.832;2023-04-24T08:07:49;4.55;;;4.15;;
47309;SDS011;33046;52.270;6.832;2023-04-24T08:09:57;4.65;;;3.92;;
47309;SDS011;33046;52.270;6.832;2023-04-24T08:12:04;3.92;;;3.53;;
47309;SDS011;33046;52.270;6.832;2023-04-24T08:14:11;4.13;;;3.72;;
47309;SDS011;33046;52.270;6.832;2023-04-24T08:16:17;5.60;;;3.70;;
47309;SDS011;33046;52.270;6.832;2023-04-24T08:18:24;3.78;;;3.47;;
47309;SDS011;33046;52.270;6.832;2023-04-24T08:20:31;4.88;;;4.10;;
47309;SDS011;33046;52.270;6.832;2023-04-24T08:22:38;3.75;;;3.45;;
47309;SDS011;33046;52.270;6.832;2023-04-24T08:24:45;3.80;;;3.47;;
47309;SDS011;33046;52.270;6.832;2023-04-24T08:26:53;4.45;;;4.05;;
47309;SDS011;33046;52.270;6.832;2023-04-24T08:29:00;4.95;;;4.05;;
47309;SDS011;33046;52.270;6.832;2023-04-24T08:31:06;6.38;;;4.70;;
47309;SDS011;33046;52.270;6.832;2023-04-24T08:33:13;4.95;;;4.45;;
47309;SDS011;33046;52.270;6.832;2023-04-24T08:35:20;3.97;;;3.58;;
47309;SDS011;33046;52.270;6.832;2023-04-24T08:37:27;3.75;;;3.45;;
47309;SDS011;33046;52.270;6.832;2023-04-24T08:39:34;4.25;;;3.50;;
47309;SDS011;33046;52.270;6.832;2023-04-24T08:41:41;4.00;;;3.35;;
47309;SDS011;33046;52.270;6.832;2023-04-24T08:43:49;3.60;;;2.95;;
47309;SDS011;33046;52.270;6.832;2023-04-24T08:45:57;3.88;;;3.47;;
47309;SDS011;33046;52.270;6.832;2023-04-24T08:48:04;2.83;;;2.38;;
47309;SDS011;33046;52.270;6.832;2023-04-24T08:50:14;2.90;;;2.60;;
47309;SDS011;33046;52.270;6.832;2023-04-24T08:52:21;4.93;;;2.95;;
47309;SDS011;33046;52.270;6.832;2023-04-24T08:54:28;4.72;;;3.13;;
47309;SDS011;33046;52.270;6.832;2023-04-24T08:56:36;2.63;;;2.03;;
47309;SDS011;33046;52.270;6.832;2023-04-24T08:58:43;2.70;;;2.42;;
47309;SDS011;33046;52.270;6.832;2023-04-24T09:00:51;2.38;;;2.17;;
47309;SDS011;33046;52.270;6.832;2023-04-24T09:03:00;3.13;;;1.77;;
47309;SDS011;33046;52.270;6.832;2023-04-24T09:05:08;3.25;;;2.30;;
47309;SDS011;33046;52.270;6.832;2023-04-24T09:07:16;2.75;;;1.88;;
47309;SDS011;33046;52.270;6.832;2023-04-24T09:09:24;2.28;;;1.70;;
47309;SDS011;33046;52.270;6.832;2023-04-24T09:11:31;2.05;;;1.70;;
47309;SDS011;33046;52.270;6.832;2023-04-24T09:13:38;2.08;;;1.45;;
47309;SDS011;33046;52.270;6.832;2023-04-24T09:15:46;1.88;;;1.27;;
47309;SDS011;33046;52.270;6.832;2023-04-24T09:17:54;2.35;;;1.63;;
47309;SDS011;33046;52.270;6.832;2023-04-24T09:20:01;1.83;;;1.23;;
47309;SDS011;33046;52.270;6.832;2023-04-24T09:22:09;0.90;;;0.80;;
47309;SDS011;33046;52.270;6.832;2023-04-24T09:24:17;2.75;;;0.80;;
47309;SDS011;33046;52.270;6.832;2023-04-24T09:26:25;3.25;;;0.80;;
47309;SDS011;33046;52.270;6.832;2023-04-24T09:28:35;1.45;;;1.20;;
47309;SDS011;33046;52.270;6.832;2023-04-24T09:30:43;1.60;;;1.20;;
47309;SDS011;33046;52.270;6.832;2023-04-24T09:32:49;3.95;;;1.90;;
47309;SDS011;33046;52.270;6.832;2023-04-24T09:35:17;5.25;;;3.20;;
47309;SDS011;33046;52.270;6.832;2023-04-24T09:37:27;3.90;;;3.10;;
47309;SDS011;33046;52.270;6.832;2023-04-24T09:39:34;6.97;;;4.22;;
47309;SDS011;33046;52.270;6.832;2023-04-24T09:41:44;5.60;;;3.85;;
47309;SDS011;33046;52.270;6.832;2023-04-24T09:43:53;4.55;;;3.88;;
47309;SDS011;33046;52.270;6.832;2023-04-24T09:46:03;5.93;;;4.75;;
47309;SDS011;33046;52.270;6.832;2023-04-24T09:48:12;5.32;;;4.05;;
47309;SDS011;33046;52.270;6.832;2023-04-24T09:50:19;6.35;;;3.58;;
47309;SDS011;33046;52.270;6.832;2023-04-24T09:52:26;4.82;;;3.97;;
47309;SDS011;33046;52.270;6.832;2023-04-24T09:54:33;6.40;;;4.60;;
47309;SDS011;33046;52.270;6.832;2023-04-24T09:56:41;9.93;;;4.25;;
47309;SDS011;33046;52.270;6.832;2023-04-24T09:58:49;5.10;;;4.53;;
47309;SDS011;33046;52.270;6.832;2023-04-24T10:00:56;5.50;;;4.07;;
47309;SDS011;33046;52.270;6.832;2023-04-24T10:03:03;6.13;;;4.60;;
47309;SDS011;33046;52.270;6.832;2023-04-24T10:05:12;5.88;;;4.57;;
47309;SDS011;33046;52.270;6.832;2023-04-24T10:07:19;6.25;;;4.32;;
47309;SDS011;33046;52.270;6.832;2023-04-24T10:09:26;6.63;;;4.20;;
47309;SDS011;33046;52.270;6.832;2023-04-24T10:11:33;5.65;;;4.85;;
47309;SDS011;33046;52.270;6.832;2023-04-24T10:13:40;6.18;;;4.22;;
47309;SDS011;33046;52.270;6.832;2023-04-24T10:15:47;4.03;;;3.63;;
47309;SDS011;33046;52.270;6.832;2023-04-24T10:20:04;5.43;;;4.28;;
47309;SDS011;33046;52.270;6.832;2023-04-24T10:22:13;5.78;;;3.88;;
47309;SDS011;33046;52.270;6.832;2023-04-24T10:24:20;5.53;;;3.72;;
47309;SDS011;33046;52.270;6.832;2023-04-24T10:26:27;7.38;;;4.47;;
47309;SDS011;33046;52.270;6.832;2023-04-24T10:28:34;6.20;;;3.97;;
47309;SDS011;33046;52.270;6.832;2023-04-24T10:30:42;4.97;;;3.28;;
47309;SDS011;33046;52.270;6.832;2023-04-24T10:32:49;5.50;;;3.45;;
47309;SDS011;33046;52.270;6.832;2023-04-24T10:34:56;6.03;;;3.80;;
47309;SDS011;33046;52.270;6.832;2023-04-24T10:37:03;5.80;;;3.08;;
47309;SDS011;33046;52.270;6.832;2023-04-24T10:39:12;7.35;;;4.32;;
47309;SDS011;33046;52.270;6.832;2023-04-24T10:41:20;4.18;;;3.13;;
47309;SDS011;33046;52.270;6.832;2023-04-24T10:43:27;4.80;;;3.28;;
47309;SDS011;33046;52.270;6.832;2023-04-24T10:45:34;5.07;;;3.85;;
47309;SDS011;33046;52.270;6.832;2023-04-24T10:47:41;7.28;;;4.35;;
47309;SDS011;33046;52.270;6.832;2023-04-24T10:49:49;6.43;;;2.80;;
47309;SDS011;33046;52.270;6.832;2023-04-24T10:51:59;5.95;;;1.85;;
47309;SDS011;33046;52.270;6.832;2023-04-24T10:54:22;4.68;;;2.08;;
47309;SDS011;33046;52.270;6.832;2023-04-24T10:56:30;4.67;;;2.13;;
47309;SDS011;33046;52.270;6.832;2023-04-24T10:58:40;6.78;;;2.03;;
47309;SDS011;33046;52.270;6.832;2023-04-24T11:00:55;3.00;;;1.50;;
47309;SDS011;33046;52.270;6.832;2023-04-24T11:03:04;4.47;;;1.65;;
47309;SDS011;33046;52.270;6.832;2023-04-24T11:05:11;3.92;;;1.45;;
47309;SDS011;33046;52.270;6.832;2023-04-24T11:07:21;6.93;;;1.70;;
47309;SDS011;33046;52.270;6.832;2023-04-24T11:09:29;5.18;;;1.85;;
47309;SDS011;33046;52.270;6.832;2023-04-24T11:11:37;6.05;;;1.80;;
47309;SDS011;33046;52.270;6.832;2023-04-24T11:14:06;3.80;;;1.42;;
47309;SDS011;33046;52.270;6.832;2023-04-24T11:16:14;4.78;;;1.30;;
47309;SDS011;33046;52.270;6.832;2023-04-24T11:18:21;6.38;;;1.83;;
47309;SDS011;33046;52.270;6.832;2023-04-24T11:20:29;4.47;;;1.83;;
47309;SDS011;33046;52.270;6.832;2023-04-24T11:22:36;6.25;;;1.55;;
47309;SDS011;33046;52.270;6.832;2023-04-24T11:24:50;7.78;;;2.45;;
47309;SDS011;33046;52.270;6.832;2023-04-24T11:27:06;6.97;;;1.90;;
47309;SDS011;33046;52.270;6.832;2023-04-24T11:29:19;5.35;;;1.55;;
47309;SDS011;33046;52.270;6.832;2023-04-24T11:31:36;5.00;;;1.92;;
47309;SDS011;33046;52.270;6.832;2023-04-24T11:33:44;7.70;;;1.92;;
47309;SDS011;33046;52.270;6.832;2023-04-24T11:35:51;8.00;;;1.88;;
47309;SDS011;33046;52.270;6.832;2023-04-24T11:37:57;8.98;;;1.80;;
47309;SDS011;33046;52.270;6.832;2023-04-24T11:40:10;7.18;;;1.80;;
47309;SDS011;33046;52.270;6.832;2023-04-24T11:42:17;13.25;;;2.20;;
47309;SDS011;33046;52.270;6.832;2023-04-24T11:44:25;5.88;;;2.33;;
47309;SDS011;33046;52.270;6.832;2023-04-24T11:46:33;6.78;;;2.70;;
47309;SDS011;33046;52.270;6.832;2023-04-24T11:48:44;7.10;;;2.25;;
47309;SDS011;33046;52.270;6.832;2023-04-24T11:50:51;5.07;;;1.90;;
47309;SDS011;33046;52.270;6.832;2023-04-24T11:52:58;4.43;;;1.42;;
47309;SDS011;33046;52.270;6.832;2023-04-24T11:55:06;4.65;;;1.25;;
47309;SDS011;33046;52.270;6.832;2023-04-24T11:57:28;5.97;;;1.45;;
47309;SDS011;33046;52.270;6.832;2023-04-24T11:59:35;10.15;;;1.45;;
47309;SDS011;33046;52.270;6.832;2023-04-24T12:01:43;6.05;;;1.33;;
47309;SDS011;33046;52.270;6.832;2023-04-24T12:03:50;4.28;;;1.17;;
47309;SDS011;33046;52.270;6.832;2023-04-24T12:06:05;4.45;;;1.23;;
47309;SDS011;33046;52.270;6.832;2023-04-24T12:08:12;5.00;;;1.80;;
47309;SDS011;33046;52.270;6.832;2023-04-24T12:10:34;5.60;;;1.67;;
47309;SDS011;33046;52.270;6.832;2023-04-24T12:12:41;5.45;;;1.40;;
47309;SDS011;33046;52.270;6.832;2023-04-24T12:14:52;6.32;;;1.75;;
47309;SDS011;33046;52.270;6.832;2023-04-24T12:17:00;4.00;;;1.30;;
47309;SDS011;33046;52.270;6.832;2023-04-24T12:19:09;4.28;;;1.02;;
47309;SDS011;33046;52.270;6.832;2023-04-24T12:21:19;5.53;;;1.05;;
47309;SDS011;33046;52.270;6.832;2023-04-24T12:23:34;2.65;;;1.10;;
47309;SDS011;33046;52.270;6.832;2023-04-24T12:25:42;3.63;;;0.80;;
47309;SDS011;33046;52.270;6.832;2023-04-24T12:27:52;4.57;;;1.05;;
47309;SDS011;33046;52.270;6.832;2023-04-24T12:30:00;7.03;;;1.40;;
47309;SDS011;33046;52.270;6.832;2023-04-24T12:32:15;4.50;;;1.42;;
47309;SDS011;33046;52.270;6.832;2023-04-24T12:34:22;4.13;;;1.42;;
47309;SDS011;33046;52.270;6.832;2023-04-24T12:36:30;2.97;;;1.00;;
47309;SDS011;33046;52.270;6.832;2023-04-24T12:38:37;6.38;;;1.83;;
47309;SDS011;33046;52.270;6.832;2023-04-24T12:40:45;6.38;;;1.63;;
47309;SDS011;33046;52.270;6.832;2023-04-24T12:42:52;4.07;;;1.35;;
47309;SDS011;33046;52.270;6.832;2023-04-24T12:45:01;6.65;;;2.00;;
47309;SDS011;33046;52.270;6.832;2023-04-24T12:47:09;4.15;;;1.23;;
47309;SDS011;33046;52.270;6.832;2023-04-24T12:49:16;7.00;;;1.73;;
47309;SDS011;33046;52.270;6.832;2023-04-24T12:51:23;2.60;;;1.13;;